Latest Weather Observations for Bushy Park

IDT60801

Issued at 4:51 pm EST Thursday 18 July 2019 (issued every 10 minutes, with the page automatically refreshed every 10 minutes)

About weather observations | Map of weather stations | Latest weather observations for TAS | Other Formats
Station Details ID: 095003 Name: BUSHY PARK (BUSHY PARK ESTATES) Lat: -42.71 Lon: 146.90 Height: 27.0 m
Data from the previous 72 hours. | See also: Recent months at Bushy Park
Date/Time
EST
Temp
°C
App
Temp
°C
Dew
Point
°C
Rel
Hum
%
Delta-T
°C
Wind Press
QNH
hPa
Press
MSL
hPa
Rain since
9am
mm
Dir  Spd
km/h
Gust
km/h
Spd
kts
Gust
kts
18/04:30pm 9.1 4.2 3.9 70 2.3 NNW 19 26 10 14 - - 0.0
18/04:00pm 9.2 5.5 4.3 71 2.2 NNW 13 17 7 9 - - 0.0
18/03:30pm 10.0 5.8 3.9 66 2.7 NNW 15 20 8 11 - - 0.0
18/03:00pm 9.9 4.8 4.1 67 2.6 NNW 20 26 11 14 - - 0.0
18/02:30pm 10.0 5.8 3.9 66 2.7 N 15 22 8 12 - - 0.0
18/02:00pm 9.9 6.2 4.6 69 2.4 N 13 19 7 10 - - 0.0
18/01:30pm 10.0 6.6 3.9 66 2.7 N 11 15 6 8 - - 0.0
18/01:00pm 10.1 5.5 3.8 65 2.8 N 17 20 9 11 - - 0.0
18/12:30pm 10.2 5.2 3.4 62 3.0 N 19 24 10 13 - - 0.0
18/12:00pm 10.5 6.3 3.8 63 3.0 N 15 19 8 10 - - 0.0
18/11:30am 9.9 4.3 3.5 64 2.8 N 22 30 12 16 - - 0.0
18/11:00am 10.1 6.4 4.3 67 2.6 NNW 13 20 7 11 - - 0.0
18/10:30am 8.9 6.4 3.6 69 2.3 NNE 6 9 3 5 - - 0.0
18/10:00am 9.0 5.4 3.0 66 2.6 N 11 17 6 9 - - 0.0
18/09:30am 8.2 5.0 3.3 71 2.1 NNE 9 13 5 7 - - 0.0
18/09:00am 6.4 3.9 3.8 83 1.1 NNW 6 11 3 6 - - 10.8
18/08:30am 5.6 2.0 3.2 84 1.0 NNW 11 17 6 9 - - 10.8
18/08:00am 4.9 2.2 2.5 84 1.0 SW 6 9 3 5 - - 10.8
18/07:30am 4.2 0.5 2.2 87 0.8 NNE 11 15 6 8 - - 10.8
18/07:00am 3.4 0.0 2.1 91 0.5 NNW 9 13 5 7 - - 10.8
18/06:30am 4.2 0.9 2.2 87 0.8 SSE 9 17 5 9 - - 10.8
18/06:00am 3.2 -0.2 1.7 90 0.6 N 9 9 5 5 - - 10.8
18/05:30am 4.7 1.8 2.5 86 0.9 NE 7 11 4 6 - - 10.8
18/05:00am 5.2 1.9 2.3 81 1.2 NE 9 15 5 8 - - 10.8
18/04:30am 5.1 1.5 2.7 84 1.0 N 11 17 6 9 - - 10.8
18/04:00am 4.7 2.1 3.0 89 0.7 NNW 6 9 3 5 - - 10.8
18/03:30am 5.3 1.4 3.4 87 0.8 NE 13 17 7 9 - - 10.6
18/03:00am 5.0 1.8 3.1 87 0.8 NNW 9 11 5 6 - - 10.6
18/02:30am 4.3 0.7 2.8 90 0.6 NNW 11 17 6 9 - - 10.6
18/02:00am 4.4 2.1 2.9 90 0.6 NE 4 9 2 5 - - 10.6
18/01:30am 4.8 0.8 3.1 89 0.7 NNW 13 22 7 12 - - 10.6
18/01:00am 4.6 1.8 3.2 91 0.6 NNE 7 11 4 6 - - 10.6
18/12:30am 5.6 1.7 3.5 86 0.9 NW 13 26 7 14 - - 10.6
18/12:00am 5.8 1.1 3.2 83 1.1 SW 17 24 9 13 - - 10.2
 
Date/Time
EST
Temp
°C
App
Temp
°C
Dew
Point
°C
Rel
Hum
%
Delta-T
°C
Wind Press
QNH
hPa
Press
MSL
hPa
Rain since
9am
mm
Dir  Spd
km/h
Gust
km/h
Spd
kts
Gust
kts
17/11:30pm 5.8 2.8 3.9 88 0.8 WNW 9 17 5 9 - - 10.2
17/11:00pm 6.1 1.6 4.0 86 0.9 SW 17 28 9 15 - - 9.4
17/10:30pm 5.9 2.6 4.5 91 0.6 W 11 20 6 11 - - 8.6
17/10:00pm 5.2 2.8 4.3 94 0.4 SW 6 9 3 5 - - 7.4
17/09:30pm 6.3 3.1 3.0 79 1.4 WNW 9 11 5 6 - - 7.4
17/09:00pm 5.6 3.3 4.7 94 0.4 SE 6 11 3 6 - - 7.4
17/08:30pm 5.6 3.1 4.7 94 0.4 NNW 7 11 4 6 - - 7.0
17/08:00pm 5.0 2.3 3.8 92 0.5 NNW 7 13 4 7 - - 6.0
17/07:30pm 5.9 3.3 4.3 89 0.7 NNW 7 11 4 6 - - 5.8
17/07:00pm 6.5 1.5 3.7 82 1.2 WNW 19 35 10 19 - - 5.6
17/06:30pm 6.8 3.0 3.8 81 1.3 W 13 28 7 15 - - 5.2
17/06:00pm 7.5 0.2 2.5 70 2.1 W 30 50 16 27 - - 4.0
17/05:59pm 7.6 0.3 2.4 69 2.2 W 30 50 16 27 - - 3.8
17/05:30pm 8.1 3.1 3.5 73 2.0 W 19 33 10 18 - - 3.4
17/05:00pm 8.5 4.7 3.9 73 2.0 W 13 19 7 10 - - 3.2
17/04:30pm 8.4 5.2 5.1 80 1.5 NW 11 19 6 10 - - 3.2
17/04:00pm 8.4 5.2 5.3 81 1.4 NNW 11 13 6 7 - - 3.0
17/03:30pm 8.9 5.7 5.2 77 1.7 NW 11 19 6 10 - - 2.8
17/03:06pm 9.2 4.7 4.0 70 2.3 W 17 26 9 14 - - 2.6
17/03:04pm 9.3 -0.2 3.9 69 2.4 SW 43 70 23 38 - - 2.6
17/03:00pm 10.1 6.4 6.5 78 1.7 SSW 15 32 8 17 - - 2.6
17/02:30pm 9.5 5.0 6.1 79 1.6 WNW 19 28 10 15 - - 2.2
17/02:00pm 10.4 6.3 6.4 76 1.9 NW 17 39 9 21 - - 2.0
17/01:30pm 9.7 7.4 7.4 85 1.1 NNW 9 15 5 8 - - 1.0
17/01:00pm 10.7 7.5 6.9 77 1.8 WNW 13 20 7 11 - - 0.4
17/12:30pm 11.3 5.8 6.0 70 2.5 NNW 24 35 13 19 - - 0.2
17/12:00pm 12.8 7.7 5.9 63 3.3 NNW 22 37 12 20 - - 0.0
17/11:30am 12.9 9.1 6.0 63 3.3 WNW 15 26 8 14 - - 0.0
17/11:00am 13.1 8.8 5.2 58 3.7 NW 17 26 9 14 - - 0.0
17/10:30am 12.6 9.1 5.6 62 3.3 NW 13 19 7 10 - - 0.0
17/10:00am 11.0 8.7 5.9 71 2.4 SW 7 11 4 6 - - 0.0
17/09:30am 11.0 8.9 5.9 71 2.4 N 6 13 3 7 - - 0.0
17/09:00am 11.7 7.8 5.5 66 2.9 NNE 15 28 8 15 - - 0.8
17/08:30am 11.0 7.7 6.4 73 2.2 N 13 19 7 10 - - 0.8
17/08:00am 9.2 5.8 6.0 80 1.5 N 13 19 7 10 - - 0.8
17/07:30am 8.5 6.0 6.6 88 0.9 N 9 13 5 7 - - 0.8
17/07:00am 8.4 5.9 6.5 88 0.9 NNW 9 15 5 8 - - 0.8
17/06:30am 8.2 6.1 6.5 89 0.8 NNW 7 9 4 5 - - 0.8
17/06:00am 9.0 6.8 6.0 81 1.4 N 7 11 4 6 - - 0.8
17/05:30am 8.5 5.9 6.3 86 1.0 N 9 13 5 7 - - 0.8
17/05:00am 8.5 5.7 7.0 90 0.7 N 11 13 6 7 - - 0.8
17/04:30am 8.4 6.4 7.3 93 0.5 NNW 7 9 4 5 - - 0.8
17/04:00am 8.9 6.5 7.0 88 0.9 NW 9 11 5 6 - - 0.8
17/03:30am 8.6 6.0 7.6 93 0.5 NNW 11 15 6 8 - - 0.8
17/03:00am 9.1 6.1 7.9 92 0.6 N 13 17 7 9 - - 0.8
17/02:30am 9.3 6.8 8.1 92 0.6 NW 11 15 6 8 - - 0.8
17/02:00am 9.6 6.3 8.2 91 0.7 NNW 15 20 8 11 - - 0.6
17/01:30am 9.9 6.1 7.6 85 1.1 NNW 17 24 9 13 - - 0.4
17/01:00am 10.7 7.3 7.6 81 1.5 WNW 15 24 8 13 - - 0.4
17/12:30am 9.6 7.2 8.6 93 0.5 NW 11 17 6 9 - - 0.4
17/12:00am 9.8 7.7 8.4 91 0.7 WNW 9 15 5 8 - - 0.2
 
Date/Time
EST
Temp
°C
App
Temp
°C
Dew
Point
°C
Rel
Hum
%
Delta-T
°C
Wind Press
QNH
hPa
Press
MSL
hPa
Rain since
9am
mm
Dir  Spd
km/h
Gust
km/h
Spd
kts
Gust
kts
16/11:30pm 9.9 6.9 7.8 87 1.0 NNW 13 19 7 10 - - 0.2
16/11:00pm 9.6 8.3 7.7 88 0.9 SSE 4 7 2 4 - - 0.2
16/10:30pm 9.9 8.2 7.6 85 1.1 WNW 6 9 3 5 - - 0.2
16/10:00pm 10.6 8.2 7.1 79 1.7 NNW 9 17 5 9 - - 0.2
16/09:30pm 10.6 8.3 7.5 81 1.5 WNW 9 13 5 7 - - 0.2
16/09:00pm 11.2 7.7 7.0 75 2.0 NW 15 22 8 12 - - 0.2
16/08:30pm 11.2 7.6 6.8 74 2.1 WNW 15 22 8 12 - - 0.2
16/08:00pm 10.1 7.5 6.3 77 1.8 W 9 13 5 7 - - 0.2
16/07:30pm 11.1 8.1 6.0 71 2.4 WNW 11 20 6 11 - - 0.2
16/07:00pm 11.5 8.5 6.0 69 2.6 WNW 11 20 6 11 - - 0.2
16/06:30pm 10.8 7.8 6.1 73 2.2 NW 11 17 6 9 - - 0.2
16/06:00pm 11.3 8.6 5.8 69 2.6 NNW 9 15 5 8 - - 0.2
16/05:30pm 12.1 9.3 5.2 62 3.2 N 9 11 5 6 - - 0.2
16/05:00pm 12.1 9.4 5.7 65 3.0 NW 9 17 5 9 - - 0.2
16/04:30pm 12.5 10.2 5.5 62 3.3 WNW 7 20 4 11 - - 0.2
16/04:00pm 12.9 9.3 5.0 58 3.7 NW 13 32 7 17 - - 0.2
16/03:30pm 13.0 9.5 5.4 60 3.5 NNW 13 20 7 11 - - 0.2
16/03:00pm 12.8 10.6 6.3 64 3.1 S 7 9 4 5 - - 0.2
16/02:30pm 13.1 10.5 6.0 62 3.4 WNW 9 15 5 8 - - 0.2
16/02:00pm 13.2 10.6 6.1 62 3.4 E 9 15 5 8 - - 0.2
16/01:30pm 13.2 9.4 5.6 60 3.6 NE 15 24 8 13 - - 0.2
16/01:00pm 13.2 10.2 5.9 61 3.5 NNE 11 17 6 9 - - 0.2
16/12:30pm 13.2 10.5 5.4 59 3.6 N 9 15 5 8 - - 0.2
16/12:00pm 13.1 9.1 5.0 58 3.8 E 15 30 8 16 - - 0.2
16/11:30am 12.8 9.1 6.3 64 3.1 NNE 15 28 8 15 - - 0.2
16/11:00am 12.7 9.4 6.2 64 3.1 ENE 13 22 7 12 - - 0.2
16/10:30am 12.7 10.2 6.5 66 3.0 SW 9 15 5 8 - - 0.2
16/10:00am 13.1 9.9 6.7 65 3.1 N 13 20 7 11 - - 0.2
16/09:30am 12.5 9.7 6.9 68 2.7 NNW 11 17 6 9 - - 0.0
16/09:00am 12.0 9.8 6.1 67 2.8 SSW 7 13 4 7 - - 0.8
16/08:30am 11.5 8.6 6.7 72 2.3 W 11 26 6 14 - - 0.8
16/08:00am 10.7 7.9 6.9 77 1.8 WNW 11 17 6 9 - - 0.8
16/07:30am 10.6 7.9 7.3 80 1.6 WNW 11 17 6 9 - - 0.8
16/07:00am 10.7 7.6 7.2 79 1.7 N 13 19 7 10 - - 0.8
16/06:30am 11.2 6.9 6.8 74 2.1 N 19 28 10 15 - - 0.8
16/06:00am 9.1 5.9 6.8 85 1.1 NNE 13 20 7 11 - - 0.8
16/05:30am 10.0 7.2 6.8 80 1.5 WNW 11 17 6 9 - - 0.8
16/05:00am 10.7 7.1 6.7 76 1.9 NW 15 24 8 13 - - 0.8
16/04:30am 11.3 5.6 6.7 73 2.2 NNW 26 37 14 20 - - 0.8
16/04:00am 10.7 5.8 6.9 77 1.8 NNW 22 33 12 18 - - 0.8
16/03:30am 10.5 6.2 6.9 78 1.7 NNW 19 26 10 14 - - 0.8
16/03:00am 10.7 6.4 6.9 77 1.8 NNW 19 26 10 14 - - 0.8
16/02:30am 11.3 6.4 6.7 73 2.2 NNW 22 33 12 18 - - 0.8
16/02:00am 10.7 6.7 6.7 76 1.9 NNW 17 24 9 13 - - 0.8
16/01:30am 10.3 6.4 7.2 81 1.5 N 17 24 9 13 - - 0.8
16/01:00am 10.2 6.8 7.7 84 1.2 N 15 19 8 10 - - 0.8
16/12:30am 11.0 7.1 7.3 78 1.8 NW 17 30 9 16 - - 0.6
16/12:00am 10.8 6.5 7.1 78 1.8 N 19 24 10 13 - - 0.6
 
Date/Time
EST
Temp
°C
App
Temp
°C
Dew
Point
°C
Rel
Hum
%
Delta-T
°C
Wind Press
QNH
hPa
Press
MSL
hPa
Rain since
9am
mm
Dir  Spd
km/h
Gust
km/h
Spd
kts
Gust
kts
15/11:30pm 10.2 7.5 7.3 82 1.4 N 11 15 6 8 - - 0.4
15/11:00pm 10.6 7.7 6.6 76 1.9 NNW 11 22 6 12 - - 0.4
15/10:30pm 10.9 7.7 6.9 76 1.9 NW 13 19 7 10 - - 0.4
15/10:00pm 10.7 7.5 6.9 77 1.8 NW 13 20 7 11 - - 0.4
15/09:30pm 11.0 7.5 7.1 77 1.9 WNW 15 28 8 15 - - 0.2
15/09:00pm 10.4 7.4 7.5 82 1.4 NW 13 20 7 11 - - 0.2
15/08:30pm 11.7 7.7 6.7 71 2.4 WNW 17 35 9 19 - - 0.0
15/08:00pm 11.6 7.6 6.6 71 2.4 W 17 35 9 19 - - 0.0
15/07:30pm 11.4 7.4 6.8 73 2.2 WNW 17 33 9 18 - - 0.0
15/07:00pm 11.1 8.0 7.2 77 1.9 SW 13 22 7 12 - - 0.0
15/06:30pm 11.9 7.2 6.2 68 2.7 NW 20 32 11 17 - - 0.0
15/06:00pm 11.7 7.0 6.2 69 2.6 NW 20 32 11 17 - - 0.0
15/05:30pm 11.8 6.3 5.9 67 2.8 NW 24 43 13 23 - - 0.0
15/05:00pm 11.9 6.7 5.5 65 3.0 NW 22 35 12 19 - - 0.0

Other formats

Comma delimited format used in spreadsheet applications
http://www.bom.gov.au/fwo/IDT60801/IDT60801.94964.axf

JavaScript Object Notation format (JSON) in row-major order
http://www.bom.gov.au/fwo/IDT60801/IDT60801.94964.json

Data quality

Most of these data are generated automatically and are frequently updated. Quality checks on data are not normally performed. It is possible for incorrect values to appear. Refer to information at About Latest Weather Observations and please check the disclaimer before using these data.